createdAt,value
2019-04-07T00:00:00.352Z,947.26
2019-04-07T00:02:26.133Z,947.35
2019-04-07T00:04:52.436Z,947.30
2019-04-07T00:07:18.744Z,947.37
2019-04-07T00:09:45.067Z,947.39
2019-04-07T00:12:11.391Z,947.31
2019-04-07T00:14:37.990Z,947.40
2019-04-07T00:17:04.011Z,947.30
2019-04-07T00:19:30.674Z,947.27
2019-04-07T00:21:56.762Z,947.30
2019-04-07T00:24:22.991Z,947.27
2019-04-07T00:26:49.296Z,947.20
2019-04-07T00:29:15.616Z,947.19
2019-04-07T00:31:41.935Z,947.22
2019-04-07T00:34:08.257Z,947.15
2019-04-07T00:36:35.045Z,947.19
2019-04-07T00:39:01.509Z,947.17
2019-04-07T00:41:27.529Z,947.16
2019-04-07T00:43:53.537Z,947.10
2019-04-07T00:46:20.057Z,947.15
2019-04-07T00:48:46.153Z,947.14
2019-04-07T00:51:12.481Z,947.07
2019-04-07T00:53:39.346Z,947.18
2019-04-07T00:56:05.159Z,947.11
2019-04-07T00:58:31.870Z,947.03
2019-04-07T01:00:57.770Z,947.07
2019-04-07T01:03:24.091Z,947.08
2019-04-07T01:05:50.396Z,947.00
2019-04-07T01:08:17.169Z,947.01
2019-04-07T01:10:43.150Z,947.01
2019-04-07T01:13:09.368Z,946.99
2019-04-07T01:15:35.693Z,946.97
2019-04-07T01:18:02.127Z,946.97
2019-04-07T01:20:28.437Z,946.87
2019-04-07T01:22:55.225Z,946.94
2019-04-07T01:25:21.486Z,946.92
2019-04-07T01:27:47.442Z,946.85
2019-04-07T01:30:13.763Z,946.85
2019-04-07T01:32:40.096Z,946.78
2019-04-07T01:35:06.992Z,946.78
2019-04-07T01:37:32.747Z,946.76
2019-04-07T01:39:59.233Z,946.76
2019-04-07T01:42:25.583Z,946.63
2019-04-07T01:44:51.892Z,946.66
2019-04-07T01:47:18.002Z,946.68
2019-04-07T01:49:44.502Z,946.58
2019-04-07T01:52:10.871Z,946.61
2019-04-07T01:54:37.214Z,946.62
2019-04-07T01:57:03.301Z,946.62
2019-04-07T01:59:30.014Z,946.61
2019-04-07T02:01:55.971Z,946.65
2019-04-07T02:04:22.276Z,946.60
2019-04-07T02:06:48.694Z,946.57
2019-04-07T02:09:14.925Z,946.54
2019-04-07T02:11:41.283Z,946.55
2019-04-07T02:14:07.896Z,946.58
2019-04-07T02:16:34.431Z,946.50
2019-04-07T02:19:00.813Z,946.51
2019-04-07T02:21:27.334Z,946.52
2019-04-07T02:23:52.866Z,946.45
2019-04-07T02:26:19.197Z,946.44
2019-04-07T02:28:46.202Z,946.51
2019-04-07T02:31:11.850Z,946.51
2019-04-07T02:33:39.324Z,946.49
2019-04-07T02:36:16.099Z,946.50
2019-04-07T02:38:31.601Z,946.47
2019-04-07T02:40:57.112Z,946.55
2019-04-07T02:43:24.171Z,946.53
2019-04-07T02:45:50.609Z,946.59
2019-04-07T02:48:16.071Z,946.48
2019-04-07T02:50:43.295Z,946.52
2019-04-07T02:53:09.498Z,946.46
2019-04-07T02:55:35.576Z,946.47
2019-04-07T02:58:01.618Z,946.53
2019-04-07T03:00:27.864Z,946.50
2019-04-07T03:02:54.114Z,946.47
2019-04-07T03:05:20.953Z,946.46
2019-04-07T03:07:47.438Z,946.49
2019-04-07T03:10:13.095Z,946.50
2019-04-07T03:12:39.445Z,946.43
2019-04-07T03:15:05.618Z,946.43
2019-04-07T03:17:32.024Z,946.41
2019-04-07T03:19:58.302Z,946.37
2019-04-07T03:22:25.674Z,946.40
2019-04-07T03:24:51.655Z,946.33
2019-04-07T03:27:17.809Z,946.36
2019-04-07T03:29:43.631Z,946.41
2019-04-07T03:32:14.146Z,946.34
2019-04-07T03:34:38.222Z,946.33
2019-04-07T03:37:19.344Z,946.31
2019-04-07T03:39:30.002Z,946.31
2019-04-07T03:41:55.530Z,946.35
2019-04-07T03:44:22.321Z,946.35
2019-04-07T03:46:47.888Z,946.39
2019-04-07T03:49:14.209Z,946.42
2019-04-07T03:51:40.701Z,946.33
2019-04-07T03:54:07.185Z,946.42
2019-04-07T03:56:34.113Z,946.39
2019-04-07T03:58:59.898Z,946.32
2019-04-07T04:01:25.967Z,946.35
2019-04-07T04:03:52.135Z,946.42
2019-04-07T04:06:19.355Z,946.40
2019-04-07T04:08:45.650Z,946.37
2019-04-07T04:11:11.641Z,946.37
2019-04-07T04:13:37.945Z,946.31
2019-04-07T04:16:03.716Z,946.30
2019-04-07T04:18:30.963Z,946.29
2019-04-07T04:20:57.160Z,946.35
2019-04-07T04:23:22.699Z,946.25
2019-04-07T04:25:49.132Z,946.25
2019-04-07T04:28:16.265Z,946.27
2019-04-07T04:30:41.975Z,946.30
2019-04-07T04:33:08.911Z,946.26
2019-04-07T04:35:34.614Z,946.24
2019-04-07T04:38:00.604Z,946.27
2019-04-07T04:40:27.972Z,946.34
2019-04-07T04:42:53.681Z,946.34
2019-04-07T04:45:19.568Z,946.34
2019-04-07T04:47:46.362Z,946.34
2019-04-07T04:50:12.850Z,946.41
2019-04-07T04:52:38.545Z,946.37
2019-04-07T04:55:04.832Z,946.40
2019-04-07T04:57:32.070Z,946.41
2019-04-07T04:59:58.028Z,946.42
2019-04-07T05:02:24.436Z,946.43
2019-04-07T05:04:50.248Z,946.46
2019-04-07T05:07:16.825Z,946.45
2019-04-07T05:09:48.721Z,946.46
2019-04-07T05:12:09.368Z,946.51
2019-04-07T05:14:35.530Z,946.53
2019-04-07T05:17:01.837Z,946.56
2019-04-07T05:19:28.292Z,946.55
2019-04-07T05:21:54.805Z,946.58
2019-04-07T05:24:21.270Z,946.57
2019-04-07T05:26:47.696Z,946.54
2019-04-07T05:29:13.744Z,946.64
2019-04-07T05:31:40.150Z,946.60
2019-04-07T05:34:06.583Z,946.56
2019-04-07T05:36:32.489Z,946.58
2019-04-07T05:38:58.697Z,946.53
2019-04-07T05:41:25.011Z,946.54
2019-04-07T05:43:51.316Z,946.52
2019-04-07T05:46:17.746Z,946.52
2019-04-07T05:48:44.516Z,946.61
2019-04-07T05:51:10.297Z,946.61
2019-04-07T05:53:36.615Z,946.60
2019-04-07T05:56:03.166Z,946.64
2019-04-07T05:58:29.232Z,946.62
2019-04-07T06:00:55.561Z,946.65
2019-04-07T06:03:21.990Z,946.68
2019-04-07T06:05:50.852Z,946.61
2019-04-07T06:08:26.019Z,946.64
2019-04-07T06:10:41.108Z,946.65
2019-04-07T06:13:07.158Z,946.61
2019-04-07T06:15:33.585Z,946.60
2019-04-07T06:18:01.403Z,946.65
2019-04-07T06:20:26.285Z,946.60
2019-04-07T06:22:53.721Z,946.67
2019-04-07T06:25:18.838Z,946.61
2019-04-07T06:27:46.036Z,946.65
2019-04-07T06:30:11.830Z,946.67
2019-04-07T06:32:38.793Z,946.68
2019-04-07T06:35:05.041Z,946.70
2019-04-07T06:37:30.849Z,946.70
2019-04-07T06:39:57.076Z,946.73
2019-04-07T06:42:23.151Z,946.71
2019-04-07T06:44:51.072Z,946.71
2019-04-07T06:47:17.592Z,946.71
2019-04-07T06:49:44.748Z,946.73
2019-04-07T06:52:08.435Z,946.70
2019-04-07T06:54:35.249Z,946.73
2019-04-07T06:57:04.410Z,946.69
2019-04-07T06:59:27.357Z,946.69
2019-04-07T07:01:56.659Z,946.66
2019-04-07T07:04:20.006Z,946.67
2019-04-07T07:06:48.274Z,946.59
2019-04-07T07:09:14.101Z,946.62
2019-04-07T07:11:42.842Z,946.62
2019-04-07T07:14:05.371Z,946.65
2019-04-07T07:16:31.814Z,946.66
2019-04-07T07:19:01.021Z,946.66
2019-04-07T07:21:24.657Z,946.70
2019-04-07T07:23:51.318Z,946.71
2019-04-07T07:26:17.199Z,946.64
2019-04-07T07:28:44.953Z,946.69
2019-04-07T07:31:10.017Z,946.70
2019-04-07T07:33:38.397Z,946.64
2019-04-07T07:36:02.491Z,946.65
2019-04-07T07:38:31.118Z,946.72
2019-04-07T07:40:55.717Z,946.77
2019-04-07T07:43:22.547Z,946.70
2019-04-07T07:45:48.607Z,946.68
2019-04-07T07:48:14.039Z,946.64
2019-04-07T07:50:40.760Z,946.64
2019-04-07T07:53:06.792Z,946.72
2019-04-07T07:55:35.914Z,946.68
2019-04-07T07:57:59.435Z,946.69
2019-04-07T08:00:25.697Z,946.76
2019-04-07T08:02:53.473Z,946.69
2019-04-07T08:05:18.267Z,946.70
2019-04-07T08:07:47.160Z,946.78
2019-04-07T08:10:10.959Z,946.72
2019-04-07T08:12:37.243Z,946.74
2019-04-07T08:15:03.577Z,946.70
2019-04-07T08:17:32.342Z,946.69
2019-04-07T08:19:56.722Z,946.71
2019-04-07T08:22:29.890Z,946.69
2019-04-07T08:24:51.166Z,946.69
2019-04-07T08:27:15.237Z,946.70
2019-04-07T08:29:41.583Z,946.63
2019-04-07T08:32:08.578Z,946.64
2019-04-07T08:34:34.866Z,946.63
2019-04-07T08:37:00.883Z,946.58
2019-04-07T08:39:31.538Z,946.56
2019-04-07T08:41:53.298Z,946.58
2019-04-07T08:44:20.309Z,946.49
2019-04-07T08:46:45.949Z,946.51
2019-04-07T08:49:12.788Z,946.46
2019-04-07T08:51:39.354Z,946.45
2019-04-07T08:54:05.869Z,946.41
2019-04-07T08:56:31.238Z,946.40
2019-04-07T08:58:57.960Z,946.38
2019-04-07T09:01:23.906Z,946.29
2019-04-07T09:03:50.745Z,946.26
2019-04-07T09:06:17.299Z,946.21
2019-04-07T09:08:42.864Z,946.22
2019-04-07T09:11:10.053Z,946.15
2019-04-07T09:13:36.265Z,946.15
2019-04-07T09:16:02.476Z,946.22
2019-04-07T09:18:28.194Z,946.19
2019-04-07T09:20:54.483Z,946.10
2019-04-07T09:23:22.738Z,946.12
2019-04-07T09:25:47.117Z,946.15
2019-04-07T09:28:14.244Z,946.09
2019-04-07T09:30:40.147Z,946.05
2019-04-07T09:33:06.081Z,946.10
2019-04-07T09:35:32.365Z,945.95
2019-04-07T09:37:58.818Z,946.01
2019-04-07T09:40:25.304Z,945.94
2019-04-07T09:42:51.867Z,945.98
2019-04-07T09:45:18.446Z,945.93
2019-04-07T09:47:46.837Z,945.93
2019-04-07T09:50:10.320Z,945.92
2019-04-07T09:52:37.063Z,945.77
2019-04-07T09:55:02.975Z,945.75
2019-04-07T09:57:29.302Z,945.75
2019-04-07T09:59:56.429Z,945.70
2019-04-07T10:02:21.943Z,945.65
2019-04-07T10:04:48.270Z,945.58
2019-04-07T10:07:16.016Z,945.61
2019-04-07T10:09:41.147Z,945.64
2019-04-07T10:12:08.098Z,945.58
2019-04-07T10:14:33.564Z,945.58
2019-04-07T10:16:59.929Z,945.45
2019-04-07T10:19:26.906Z,945.59
2019-04-07T10:21:52.701Z,945.52
2019-04-07T10:24:19.752Z,945.57
2019-04-07T10:26:45.303Z,945.45
2019-04-07T10:29:12.195Z,945.47
2019-04-07T10:31:37.932Z,945.40
2019-04-07T10:34:05.061Z,945.39
2019-04-07T10:36:30.809Z,945.35
2019-04-07T10:38:56.941Z,945.38
2019-04-07T10:41:23.245Z,945.36
2019-04-07T10:43:50.303Z,945.36
2019-04-07T10:46:15.904Z,945.37
2019-04-07T10:48:42.226Z,945.34
2019-04-07T10:51:08.560Z,945.27
2019-04-07T10:53:35.413Z,945.26
2019-04-07T10:56:01.226Z,945.23
2019-04-07T10:58:27.953Z,945.23
2019-04-07T11:00:53.893Z,945.32
2019-04-07T11:03:21.270Z,945.23
2019-04-07T11:05:46.540Z,945.19
2019-04-07T11:08:12.846Z,945.33
2019-04-07T11:10:39.510Z,945.25
2019-04-07T11:13:05.658Z,945.24
2019-04-07T11:15:31.866Z,945.30
2019-04-07T11:17:58.212Z,945.22
2019-04-07T11:20:24.821Z,945.14
2019-04-07T11:22:50.832Z,945.20
2019-04-07T11:25:17.206Z,945.13
2019-04-07T11:27:44.056Z,945.08
2019-04-07T11:30:09.867Z,945.15
2019-04-07T11:32:36.913Z,945.11
2019-04-07T11:35:02.858Z,945.02
2019-04-07T11:37:29.218Z,945.03
2019-04-07T11:39:55.178Z,945.02
2019-04-07T11:42:21.486Z,945.01
2019-04-07T11:44:48.736Z,944.93
2019-04-07T11:47:14.257Z,944.97
2019-04-07T11:49:42.552Z,944.94
2019-04-07T11:52:07.153Z,944.99
2019-04-07T11:54:33.855Z,944.91
2019-04-07T11:56:59.531Z,944.87
2019-04-07T11:59:26.325Z,944.86
2019-04-07T12:01:52.174Z,944.84
2019-04-07T12:04:18.576Z,944.73
2019-04-07T12:06:48.809Z,944.81
2019-04-07T12:09:11.769Z,944.78
2019-04-07T12:11:37.503Z,944.78
2019-04-07T12:14:04.102Z,944.84
2019-04-07T12:16:30.814Z,944.75
2019-04-07T12:18:56.514Z,944.74
2019-04-07T12:21:25.401Z,944.77
2019-04-07T12:23:49.724Z,944.76
2019-04-07T12:26:16.043Z,944.66
2019-04-07T12:28:42.237Z,944.68
2019-04-07T12:31:08.586Z,944.61
2019-04-07T12:33:37.561Z,944.60
2019-04-07T12:36:00.882Z,944.63
2019-04-07T12:38:27.449Z,944.60
2019-04-07T12:40:59.452Z,944.55
2019-04-07T12:43:19.956Z,944.57
2019-04-07T12:45:46.762Z,944.46
2019-04-07T12:48:12.742Z,944.57
2019-04-07T12:50:39.223Z,944.59
2019-04-07T12:53:06.840Z,944.48
2019-04-07T12:55:32.581Z,944.44
2019-04-07T12:57:58.070Z,944.43
2019-04-07T13:00:25.148Z,944.48
2019-04-07T13:02:53.807Z,944.47
2019-04-07T13:05:17.522Z,944.41
2019-04-07T13:07:43.777Z,944.50
2019-04-07T13:10:10.473Z,944.49
2019-04-07T13:12:36.501Z,944.47
2019-04-07T13:15:03.502Z,944.38
2019-04-07T13:17:34.217Z,944.46
2019-04-07T13:19:58.224Z,944.40
2019-04-07T13:22:22.432Z,944.45
2019-04-07T13:24:48.751Z,944.40
2019-04-07T13:27:14.531Z,944.39
2019-04-07T13:29:41.293Z,944.45
2019-04-07T13:32:07.633Z,944.42
2019-04-07T13:34:33.562Z,944.40
2019-04-07T13:37:00.174Z,944.44
2019-04-07T13:39:26.302Z,944.46
2019-04-07T13:41:55.320Z,944.44
2019-04-07T13:44:19.675Z,944.43
2019-04-07T13:46:45.314Z,944.37
2019-04-07T13:49:11.816Z,944.39
2019-04-07T13:51:38.053Z,944.36
2019-04-07T13:54:05.451Z,944.37
2019-04-07T13:56:30.823Z,944.41
2019-04-07T13:58:57.071Z,944.49
2019-04-07T14:01:23.413Z,944.41
2019-04-07T14:03:50.405Z,944.36
2019-04-07T14:06:16.434Z,944.45
2019-04-07T14:08:42.707Z,944.34
2019-04-07T14:11:10.861Z,944.36
2019-04-07T14:13:37.937Z,944.32
2019-04-07T14:16:01.580Z,944.32
2019-04-07T14:18:27.893Z,944.23
2019-04-07T14:20:55.074Z,944.27
2019-04-07T14:23:20.760Z,944.26
2019-04-07T14:25:48.257Z,944.30
2019-04-07T14:28:14.355Z,944.29
2019-04-07T14:30:39.854Z,944.30
2019-04-07T14:33:06.563Z,944.25
2019-04-07T14:35:32.523Z,944.25
2019-04-07T14:37:59.372Z,944.31
2019-04-07T14:40:26.215Z,944.20
2019-04-07T14:42:51.931Z,944.23
2019-04-07T14:45:18.098Z,944.27
2019-04-07T14:47:44.666Z,944.21
2019-04-07T14:50:11.895Z,944.23
2019-04-07T14:52:37.202Z,944.22
2019-04-07T14:55:04.851Z,944.25
2019-04-07T14:57:29.775Z,944.24
2019-04-07T14:59:56.363Z,944.34
2019-04-07T15:02:22.760Z,944.22
2019-04-07T15:04:49.103Z,944.25
2019-04-07T15:07:16.140Z,944.32
2019-04-07T15:09:41.865Z,944.26
2019-04-07T15:12:16.093Z,944.23
2019-04-07T15:14:34.569Z,944.25
2019-04-07T15:17:00.932Z,944.27
2019-04-07T15:19:27.728Z,944.32
2019-04-07T15:21:55.028Z,944.29
2019-04-07T15:24:20.041Z,944.26
2019-04-07T15:26:48.940Z,944.21
2019-04-07T15:29:12.770Z,944.25
2019-04-07T15:31:39.105Z,944.24
2019-04-07T15:34:08.559Z,944.33
2019-04-07T15:36:31.918Z,944.32
2019-04-07T15:38:59.436Z,944.29
2019-04-07T15:41:25.385Z,944.25
2019-04-07T15:43:50.989Z,944.36
2019-04-07T15:46:19.059Z,944.28
2019-04-07T15:48:43.779Z,944.29
2019-04-07T15:51:10.292Z,944.29
2019-04-07T15:53:36.971Z,944.34
2019-04-07T15:56:06.333Z,944.36
2019-04-07T15:58:29.729Z,944.36
2019-04-07T16:00:55.525Z,944.32
2019-04-07T16:03:22.319Z,944.35
2019-04-07T16:05:48.977Z,944.38
2019-04-07T16:08:14.571Z,944.34
2019-04-07T16:10:41.371Z,944.35
2019-04-07T16:13:07.251Z,944.37
2019-04-07T16:15:33.598Z,944.30
2019-04-07T16:18:03.373Z,944.29
2019-04-07T16:20:33.526Z,944.38
2019-04-07T16:22:52.785Z,944.45
2019-04-07T16:25:19.562Z,944.36
2019-04-07T16:27:45.752Z,944.45
2019-04-07T16:30:13.841Z,944.37
2019-04-07T16:32:38.055Z,944.43
2019-04-07T16:35:04.365Z,944.38
2019-04-07T16:37:31.083Z,944.41
2019-04-07T16:39:57.040Z,944.43
2019-04-07T16:42:23.377Z,944.40
2019-04-07T16:44:50.519Z,944.46
2019-04-07T16:47:21.707Z,944.51
2019-04-07T16:49:46.688Z,944.50
2019-04-07T16:52:08.841Z,944.56
2019-04-07T16:54:35.363Z,944.59
2019-04-07T16:57:02.038Z,944.56
2019-04-07T16:59:27.900Z,944.61
2019-04-07T17:01:54.941Z,944.56
2019-04-07T17:04:21.224Z,944.52
2019-04-07T17:06:53.989Z,944.62
2019-04-07T17:09:13.281Z,944.61
2019-04-07T17:11:40.764Z,944.57
2019-04-07T17:14:05.897Z,944.68
2019-04-07T17:16:32.310Z,944.66
2019-04-07T17:18:58.822Z,944.72
2019-04-07T17:21:25.506Z,944.67
2019-04-07T17:23:55.322Z,944.70
2019-04-07T17:26:18.087Z,944.71
2019-04-07T17:28:46.198Z,944.77
2019-04-07T17:31:11.645Z,944.70
2019-04-07T17:33:37.942Z,944.75
2019-04-07T17:36:03.259Z,944.80
2019-04-07T17:38:33.139Z,944.81
2019-04-07T17:40:56.023Z,944.79
2019-04-07T17:43:28.716Z,944.95
2019-04-07T17:45:52.078Z,944.95
2019-04-07T17:48:15.188Z,944.99
2019-04-07T17:50:42.145Z,945.02
2019-04-07T17:53:11.659Z,945.05
2019-04-07T17:55:34.423Z,945.10
2019-04-07T17:58:01.592Z,945.14
2019-04-07T18:00:27.983Z,945.14
2019-04-07T18:02:57.180Z,945.17
2019-04-07T18:05:23.607Z,945.22
2019-04-07T18:07:46.200Z,945.24
2019-04-07T18:10:13.471Z,945.23
2019-04-07T18:12:39.044Z,945.21
2019-04-07T18:15:08.756Z,945.23
2019-04-07T18:17:31.591Z,945.14
2019-04-07T18:19:59.484Z,945.17
2019-04-07T18:22:24.788Z,945.20
2019-04-07T18:24:51.024Z,945.22
2019-04-07T18:27:18.310Z,945.20
2019-04-07T18:29:43.571Z,945.22
2019-04-07T18:32:10.926Z,945.24
2019-04-07T18:34:36.578Z,945.24
2019-04-07T18:37:06.086Z,945.33
2019-04-07T18:39:29.660Z,945.30
2019-04-07T18:41:56.098Z,945.18
2019-04-07T18:44:21.649Z,945.14
2019-04-07T18:46:52.203Z,945.19
2019-04-07T18:49:14.655Z,945.17
2019-04-07T18:51:44.377Z,945.20
2019-04-07T18:54:09.573Z,945.19
2019-04-07T18:56:33.349Z,945.23
2019-04-07T18:58:59.701Z,945.23
2019-04-07T19:01:26.487Z,945.10
2019-04-07T19:03:53.521Z,945.09
2019-04-07T19:06:18.738Z,945.18
2019-04-07T19:08:46.891Z,945.12
2019-04-07T19:11:16.588Z,945.17
2019-04-07T19:13:37.765Z,945.20
2019-04-07T19:16:04.211Z,945.18
2019-04-07T19:18:30.606Z,945.16
2019-04-07T19:20:57.737Z,945.27
2019-04-07T19:23:26.311Z,945.11
2019-04-07T19:25:50.009Z,945.17
2019-04-07T19:28:15.916Z,945.08
2019-04-07T19:30:45.379Z,945.14
2019-04-07T19:33:09.023Z,945.19
2019-04-07T19:35:39.792Z,945.21
2019-04-07T19:38:01.391Z,945.10
2019-04-07T19:40:28.897Z,945.17
2019-04-07T19:42:54.416Z,945.04
2019-04-07T19:45:22.898Z,945.07
2019-04-07T19:47:46.988Z,945.05
2019-04-07T19:50:13.316Z,945.04
2019-04-07T19:52:39.874Z,945.02
2019-04-07T19:55:05.942Z,945.06
2019-04-07T19:57:32.302Z,944.98
2019-04-07T19:59:58.641Z,945.01
2019-04-07T20:02:25.327Z,945.06
2019-04-07T20:04:53.484Z,944.97
2019-04-07T20:07:17.936Z,945.06
2019-04-07T20:09:46.845Z,945.04
2019-04-07T20:12:10.694Z,944.95
2019-04-07T20:14:46.534Z,945.04
2019-04-07T20:17:02.921Z,944.99
2019-04-07T20:19:35.003Z,944.86
2019-04-07T20:21:56.798Z,945.00
2019-04-07T20:24:21.965Z,944.98
2019-04-07T20:26:51.003Z,944.90
2019-04-07T20:29:14.974Z,944.85
2019-04-07T20:31:40.915Z,944.93
2019-04-07T20:34:07.674Z,944.85
2019-04-07T20:36:33.826Z,944.89
2019-04-07T20:39:00.477Z,944.89
2019-04-07T20:41:26.258Z,944.80
2019-04-07T20:43:53.936Z,944.86
2019-04-07T20:46:21.483Z,944.81
2019-04-07T20:48:45.385Z,944.75
2019-04-07T20:51:14.791Z,944.80
2019-04-07T20:53:39.441Z,944.82
2019-04-07T20:56:04.175Z,944.79
2019-04-07T20:58:43.691Z,944.81
2019-04-07T21:01:00.695Z,944.75
2019-04-07T21:03:25.566Z,944.83
2019-04-07T21:05:50.360Z,944.77
2019-04-07T21:08:16.577Z,944.75
2019-04-07T21:10:42.149Z,944.77
2019-04-07T21:13:08.749Z,944.80
2019-04-07T21:15:35.728Z,944.74
2019-04-07T21:18:01.974Z,944.72
2019-04-07T21:20:27.777Z,944.70
2019-04-07T21:22:54.018Z,944.73
2019-04-07T21:25:23.781Z,944.76
2019-04-07T21:27:48.924Z,944.72
2019-04-07T21:30:14.722Z,944.66
2019-04-07T21:32:39.894Z,944.70
2019-04-07T21:35:05.408Z,944.65
2019-04-07T21:37:32.578Z,944.65
2019-04-07T21:40:02.801Z,944.61
2019-04-07T21:42:25.341Z,944.61
2019-04-07T21:44:50.749Z,944.64
2019-04-07T21:47:17.053Z,944.65
2019-04-07T21:49:43.935Z,944.62
2019-04-07T21:52:09.704Z,944.59
2019-04-07T21:54:37.876Z,944.55
2019-04-07T21:57:02.386Z,944.51
2019-04-07T21:59:31.391Z,944.64
2019-04-07T22:01:55.164Z,944.49
2019-04-07T22:04:24.933Z,944.55
2019-04-07T22:06:48.609Z,944.53
2019-04-07T22:09:15.177Z,944.50
2019-04-07T22:11:43.069Z,944.38
2019-04-07T22:14:07.676Z,944.44
2019-04-07T22:16:34.163Z,944.42
2019-04-07T22:18:59.905Z,944.41
2019-04-07T22:21:25.756Z,944.40
2019-04-07T22:23:51.968Z,944.41
2019-04-07T22:26:19.298Z,944.37
2019-04-07T22:28:44.993Z,944.41
2019-04-07T22:31:12.658Z,944.38
2019-04-07T22:33:37.249Z,944.35
2019-04-07T22:36:03.868Z,944.29
2019-04-07T22:38:29.950Z,944.36
2019-04-07T22:40:56.344Z,944.30
2019-04-07T22:43:22.964Z,944.33
2019-04-07T22:45:58.849Z,944.38
2019-04-07T22:48:15.429Z,944.29
2019-04-07T22:50:41.572Z,944.34
2019-04-07T22:53:07.901Z,944.28
2019-04-07T22:55:35.949Z,944.28
2019-04-07T22:58:00.545Z,944.20
2019-04-07T23:00:26.976Z,944.24
2019-04-07T23:02:54.061Z,944.18
2019-04-07T23:05:19.508Z,944.22
2019-04-07T23:07:46.009Z,944.23
2019-04-07T23:10:12.160Z,944.23
2019-04-07T23:12:38.472Z,944.25
2019-04-07T23:15:05.618Z,944.20
2019-04-07T23:17:31.091Z,944.16
2019-04-07T23:19:57.422Z,944.10
2019-04-07T23:22:23.783Z,944.11
2019-04-07T23:24:50.899Z,944.13
2019-04-07T23:27:16.415Z,944.08
2019-04-07T23:29:42.733Z,944.05
2019-04-07T23:32:09.531Z,944.10
2019-04-07T23:34:35.393Z,944.11
2019-04-07T23:37:01.821Z,944.05
2019-04-07T23:39:28.028Z,943.95
2019-04-07T23:41:54.480Z,943.96
2019-04-07T23:44:21.405Z,943.89
2019-04-07T23:46:47.694Z,943.94
2019-04-07T23:49:13.373Z,943.94
2019-04-07T23:51:39.683Z,943.83
2019-04-07T23:54:07.198Z,943.83
2019-04-07T23:56:32.343Z,943.79
2019-04-07T23:58:58.670Z,943.76
